Time;durP1;ratioP1;P1;durP2;ratioP2;P2;SDS_P1;SDS_P2;PMS_P1;PMS_P2;Temp;Humidity;BMP_temperature;BMP_pressure;BME280_temperature;BME280_humidity;BME280_pressure;Samples;Min_cycle;Max_cycle;Signal;HPM_P1;HPM_P2
2022/01/21 00:01:04;;;;;;;11.80;3.13;;;1.30;99.90;;;;;;5086513;28;20044;-70
2022/01/21 00:03:30;;;;;;;9.55;2.92;;;1.30;99.90;;;;;;5082504;28;20062;-70
2022/01/21 00:05:56;;;;;;;12.00;2.22;;;1.30;99.90;;;;;;5047795;28;20086;-70
2022/01/21 00:08:22;;;;;;;14.45;2.65;;;1.30;99.90;;;;;;5080327;28;20093;-70
2022/01/21 00:10:48;;;;;;;10.45;2.15;;;1.20;99.90;;;;;;5066400;28;20484;-70
2022/01/21 00:13:19;;;;;;;8.82;1.98;;;1.20;99.90;;;;;;5085247;28;20043;-70
2022/01/21 00:15:45;;;;;;;;;;;1.20;99.90;;;;;;5067586;28;20055;-70
2022/01/21 00:18:11;;;;;;;19.50;3.03;;;1.30;99.90;;;;;;5062324;28;19924;-70
2022/01/21 00:31:34;;;;;;;17.02;3.20;;;1.40;99.90;;;;;;5070729;28;20094;-70
2022/01/21 00:33:59;;;;;;;11.25;3.13;;;1.50;99.90;;;;;;5069292;28;20036;-70
2022/01/21 00:36:25;;;;;;;18.90;3.10;;;1.50;99.90;;;;;;5072550;28;20052;-70
2022/01/21 00:38:53;;;;;;;10.63;2.53;;;1.50;99.90;;;;;;5085326;28;20123;-70
2022/01/21 00:41:23;;;;;;;12.82;2.67;;;1.60;99.90;;;;;;5079211;28;20078;-70
2022/01/21 00:43:48;;;;;;;12.45;2.17;;;1.70;99.90;;;;;;5076487;28;20052;-70
2022/01/21 00:46:14;;;;;;;11.25;2.78;;;2.70;99.90;;;;;;5080973;28;20071;-70
2022/01/21 00:48:40;;;;;;;10.90;2.13;;;2.30;99.90;;;;;;5052400;28;20040;-70
2022/01/21 00:51:06;;;;;;;13.25;2.53;;;1.80;99.90;;;;;;5078118;28;20049;-70
2022/01/21 00:53:32;;;;;;;12.88;2.30;;;2.00;99.90;;;;;;5073187;28;20434;-70
2022/01/21 00:55:58;;;;;;;15.68;3.17;;;1.90;99.90;;;;;;5079388;28;20029;-70
2022/01/21 00:58:24;;;;;;;11.68;2.10;;;1.90;99.90;;;;;;5081540;28;20580;-70
2022/01/21 01:00:49;;;;;;;14.98;2.33;;;1.90;99.90;;;;;;5047778;28;20040;-70
2022/01/21 01:03:19;;;;;;;11.38;1.80;;;2.80;99.90;;;;;;5081126;28;20086;-70
2022/01/21 01:05:49;;;;;;;9.32;2.08;;;2.10;99.90;;;;;;5080677;28;20055;-70
2022/01/21 01:08:15;;;;;;;8.52;1.90;;;2.10;99.90;;;;;;5080387;28;20106;-70
2022/01/21 01:21:21;;;;;;;9.65;1.13;;;2.00;99.90;;;;;;5074685;28;20134;-70
2022/01/21 01:29:00;;;;;;;7.85;1.77;;;2.20;99.90;;;;;;5081492;28;20047;-70
2022/01/21 01:31:26;;;;;;;6.50;1.48;;;2.40;99.90;;;;;;5081295;28;20466;-70
2022/01/21 01:33:52;;;;;;;8.48;3.22;;;2.10;99.90;;;;;;5082392;28;20093;-70
2022/01/21 01:36:20;;;;;;;10.50;2.55;;;2.10;99.90;;;;;;5081394;28;20093;-70
2022/01/21 01:41:41;;;;;;;10.93;1.58;;;2.10;99.90;;;;;;5081280;28;20091;-70
2022/01/21 01:49:37;;;;;;;11.30;2.28;;;2.30;99.90;;;;;;5085215;28;20056;-70
2022/01/21 01:52:07;;;;;;;11.70;2.28;;;2.00;99.90;;;;;;5086218;28;20100;-70
2022/01/21 01:54:35;;;;;;;9.07;2.17;;;2.00;99.90;;;;;;5065587;28;20041;-70
2022/01/21 01:57:01;;;;;;;17.35;2.97;;;2.20;99.90;;;;;;5070809;28;20071;-70
2022/01/21 01:59:27;;;;;;;12.85;2.42;;;2.00;99.90;;;;;;5072068;28;20395;-70
2022/01/21 02:02:02;;;;;;;15.02;2.40;;;2.00;99.90;;;;;;5086389;28;20047;-70
2022/01/21 02:04:28;;;;;;;13.80;2.05;;;2.10;99.90;;;;;;5080620;28;20052;-70
2022/01/21 02:06:54;;;;;;;10.35;2.55;;;2.60;99.90;;;;;;5069819;28;20131;-70
2022/01/21 02:09:22;;;;;;;9.70;2.30;;;2.00;99.90;;;;;;5069252;28;20449;-70
2022/01/21 02:11:48;;;;;;;11.93;2.20;;;2.00;99.90;;;;;;5079853;28;20384;-70
2022/01/21 02:14:20;;;;;;;15.32;2.38;;;2.20;99.90;;;;;;5089073;28;20039;-70
2022/01/21 02:22:19;;;;;;;16.08;4.20;;;1.80;99.90;;;;;;5081497;28;20518;-70
2022/01/21 02:24:58;;;;;;;12.93;2.10;;;1.90;99.90;;;;;;5084394;28;20052;-70
2022/01/21 02:27:25;;;;;;;8.43;1.90;;;1.90;99.90;;;;;;5066891;28;20097;-70
2022/01/21 02:29:54;;;;;;;13.57;2.28;;;1.90;99.90;;;;;;5083314;28;20051;-70
2022/01/21 02:32:21;;;;;;;13.68;1.95;;;2.00;99.90;;;;;;5085850;28;20037;-70
2022/01/21 02:34:48;;;;;;;11.32;1.58;;;2.00;99.90;;;;;;5078259;28;20051;-70
2022/01/21 02:37:20;;;;;;;8.20;1.40;;;2.00;99.90;;;;;;5069877;28;20032;-70
2022/01/21 02:39:46;;;;;;;10.88;1.58;;;2.00;99.90;;;;;;5069392;28;20960;-70
2022/01/21 02:42:12;;;;;;;8.10;1.67;;;2.10;99.90;;;;;;5083388;28;20031;-70
2022/01/21 02:44:39;;;;;;;6.75;1.40;;;2.00;99.90;;;;;;5081770;28;20403;-70
2022/01/21 02:47:06;;;;;;;7.38;1.25;;;2.30;99.90;;;;;;5086480;28;20055;-70
2022/01/21 02:49:33;;;;;;;5.70;1.20;;;1.90;99.90;;;;;;5083239;28;20078;-70
2022/01/21 02:52:01;;;;;;;8.45;1.55;;;1.90;99.90;;;;;;5086695;28;20040;-70
2022/01/21 02:54:30;;;;;;;10.73;1.42;;;2.00;99.90;;;;;;5065500;28;20089;-70
2022/01/21 02:56:57;;;;;;;9.23;1.60;;;1.80;99.90;;;;;;5087127;28;20076;-70
2022/01/21 02:59:22;;;;;;;10.27;1.63;;;1.80;99.90;;;;;;5064545;28;20145;-70
2022/01/21 03:01:49;;;;;;;9.45;1.88;;;1.80;99.90;;;;;;5084709;28;20057;-70
2022/01/21 03:04:23;;;;;;;9.85;2.00;;;2.20;99.90;;;;;;5068762;28;20067;-70
2022/01/21 03:06:48;;;;;;;10.60;1.25;;;1.80;99.90;;;;;;5072570;28;20468;-70
2022/01/21 03:09:14;;;;;;;6.50;1.20;;;2.60;99.90;;;;;;5065773;28;20090;-70
2022/01/21 03:11:40;;;;;;;6.60;1.50;;;1.90;99.90;;;;;;5051424;28;20094;-70
2022/01/21 03:14:06;;;;;;;12.55;1.42;;;1.80;99.90;;;;;;5053598;28;20130;-70
2022/01/21 03:16:31;;;;;;;5.03;1.40;;;1.80;99.90;;;;;;5069094;28;20065;-70
2022/01/21 03:18:57;;;;;;;5.82;1.25;;;1.90;99.90;;;;;;5086625;28;20508;-70
2022/01/21 03:21:23;;;;;;;7.30;1.35;;;1.90;99.90;;;;;;5065274;28;20041;-70
2022/01/21 03:23:51;;;;;;;9.00;1.52;;;1.90;99.90;;;;;;5084527;28;20123;-70
2022/01/21 03:26:21;;;;;;;12.70;2.20;;;1.90;99.90;;;;;;5067666;28;20040;-70
2022/01/21 03:28:49;;;;;;;6.30;1.20;;;2.00;99.90;;;;;;5084755;28;20036;-70
2022/01/21 03:31:15;;;;;;;6.65;1.35;;;2.00;99.90;;;;;;5065518;28;20036;-70
2022/01/21 03:33:42;;;;;;;4.55;1.00;;;2.00;99.90;;;;;;5080900;28;20110;-70
2022/01/21 03:36:08;;;;;;;6.82;1.40;;;2.00;99.90;;;;;;5081983;28;20036;-70
2022/01/21 03:38:34;;;;;;;5.07;1.30;;;2.10;99.90;;;;;;5077326;28;20039;-70
2022/01/21 03:41:00;;;;;;;6.22;1.17;;;2.10;99.90;;;;;;5066252;28;20048;-70
2022/01/21 03:43:26;;;;;;;7.22;1.20;;;2.10;99.90;;;;;;5045204;28;20390;-70
2022/01/21 03:45:52;;;;;;;6.65;2.10;;;2.10;99.90;;;;;;5077764;28;20032;-70
2022/01/21 03:48:19;;;;;;;8.60;1.02;;;2.10;99.90;;;;;;5085012;28;20044;-70
2022/01/21 03:50:45;;;;;;;9.52;2.58;;;2.10;99.90;;;;;;5065757;28;20044;-70
2022/01/21 03:53:11;;;;;;;7.03;1.95;;;2.10;99.90;;;;;;5073493;28;20225;-70
2022/01/21 03:55:37;;;;;;;7.25;0.93;;;3.60;99.90;;;;;;5063612;28;20541;-70
2022/01/21 03:58:05;;;;;;;8.25;0.90;;;2.10;99.90;;;;;;5078626;28;20040;-70
2022/01/21 04:00:34;;;;;;;6.10;1.42;;;2.00;99.90;;;;;;5062800;28;20032;-70
2022/01/21 04:03:00;;;;;;;7.97;1.20;;;2.00;99.90;;;;;;5069420;28;20376;-70
2022/01/21 04:05:27;;;;;;;6.40;1.20;;;1.90;99.90;;;;;;5076524;28;20480;-70
2022/01/21 04:07:53;;;;;;;7.57;1.35;;;1.80;99.90;;;;;;5078105;28;20071;-70
2022/01/21 04:10:19;;;;;;;6.45;1.00;;;1.80;99.90;;;;;;5065523;28;20063;-70
2022/01/21 04:12:45;;;;;;;4.97;0.90;;;1.80;99.90;;;;;;5083068;28;20070;-70
2022/01/21 04:15:12;;;;;;;6.85;1.00;;;1.80;99.90;;;;;;5084073;28;20539;-71
2022/01/21 04:17:38;;;;;;;10.65;1.40;;;1.70;99.90;;;;;;5087915;28;20043;-70
2022/01/21 04:20:06;;;;;;;8.85;2.03;;;1.70;99.90;;;;;;5080181;28;20488;-70
2022/01/21 04:22:32;;;;;;;4.93;0.95;;;1.70;99.90;;;;;;5089033;28;20043;-70
2022/01/21 04:25:00;;;;;;;10.32;1.63;;;1.70;99.90;;;;;;5069631;28;20113;-70
2022/01/21 04:27:26;;;;;;;9.05;1.50;;;1.70;99.90;;;;;;5087477;28;20507;-70
2022/01/21 04:29:52;;;;;;;6.55;1.58;;;1.70;99.90;;;;;;5063213;28;20090;-70
2022/01/21 04:32:17;;;;;;;7.10;1.67;;;1.90;99.90;;;;;;5078977;28;20032;-70
2022/01/21 04:34:43;;;;;;;6.15;1.20;;;1.80;99.90;;;;;;5071515;28;20483;-70
2022/01/21 04:37:12;;;;;;;12.98;3.67;;;1.90;99.90;;;;;;5087146;28;20032;-70
2022/01/21 04:39:46;;;;;;;7.93;1.00;;;1.80;99.90;;;;;;5085021;28;20051;-70
2022/01/21 04:47:28;;;;;;;7.05;1.20;;;2.10;99.90;;;;;;5069797;28;20140;-70
2022/01/21 04:49:54;;;;;;;4.03;1.15;;;1.80;99.90;;;;;;5088073;28;20478;-70
2022/01/21 04:52:22;;;;;;;6.78;1.33;;;2.20;99.90;;;;;;5068000;28;20040;-70
2022/01/21 04:54:48;;;;;;;6.88;1.92;;;2.00;99.90;;;;;;5087961;28;20047;-70
2022/01/21 04:57:14;;;;;;;8.82;1.17;;;1.60;99.90;;;;;;5088773;28;20036;-70
2022/01/21 04:59:41;;;;;;;3.80;1.27;;;1.60;99.90;;;;;;5086549;28;20737;-70
2022/01/21 05:02:07;;;;;;;10.05;1.50;;;1.60;99.90;;;;;;5082829;28;20441;-70
2022/01/21 05:04:34;;;;;;;8.55;1.40;;;1.60;99.90;;;;;;5084066;28;20123;-70
2022/01/21 05:07:02;;;;;;;7.55;0.98;;;1.50;99.90;;;;;;5069389;28;20044;-70
2022/01/21 05:09:33;;;;;;;6.53;1.05;;;1.50;99.90;;;;;;5080647;28;20040;-70
2022/01/21 05:12:01;;;;;;;7.65;1.17;;;1.50;99.90;;;;;;5085421;28;20041;-70
2022/01/21 05:17:12;;;;;;;5.75;1.90;;;1.40;99.90;;;;;;5083876;28;20432;-70
2022/01/21 05:19:38;;;;;;;8.57;1.48;;;1.30;99.90;;;;;;5078403;28;20051;-70
2022/01/21 05:22:04;;;;;;;5.32;1.05;;;1.30;99.90;;;;;;5087475;28;20040;-70
2022/01/21 05:24:30;;;;;;;11.20;1.50;;;1.30;99.90;;;;;;5082190;28;20419;-70
2022/01/21 05:26:58;;;;;;;7.45;1.52;;;1.40;99.90;;;;;;5088504;28;20047;-70
2022/01/21 05:29:33;;;;;;;8.65;1.77;;;1.30;99.90;;;;;;5088574;28;20075;-70
2022/01/21 05:31:59;;;;;;;8.00;1.30;;;1.30;99.90;;;;;;5086772;28;20036;-70
2022/01/21 05:34:25;;;;;;;13.18;1.60;;;1.40;99.90;;;;;;5071193;28;20067;-70
2022/01/21 05:36:51;;;;;;;7.40;1.60;;;1.40;99.90;;;;;;5056134;28;20501;-70
2022/01/21 05:39:18;;;;;;;10.30;1.77;;;1.40;99.90;;;;;;5066349;28;21096;-70
2022/01/21 05:41:48;;;;;;;11.00;1.75;;;1.50;99.90;;;;;;5067992;28;20048;-70
2022/01/21 05:46:22;;;;;;;11.02;1.88;;;1.40;99.90;;;;;;5086870;28;20043;-70
2022/01/21 05:47:02;;;;;;;10.43;1.67;;;1.40;99.90;;;;;;5085442;28;20074;-70
2022/01/21 05:49:30;;;;;;;14.60;2.35;;;1.40;99.90;;;;;;5066628;28;20504;-70
2022/01/21 05:52:03;;;;;;;9.88;1.42;;;1.50;99.90;;;;;;5078190;28;20749;-70
2022/01/21 05:54:29;;;;;;;10.07;1.33;;;1.50;99.90;;;;;;5073623;28;20040;-70
2022/01/21 05:56:55;;;;;;;10.50;1.38;;;1.50;99.90;;;;;;5081944;28;20039;-70
2022/01/21 05:59:21;;;;;;;9.50;2.28;;;1.50;99.90;;;;;;5093406;28;20043;-70
2022/01/21 06:01:47;;;;;;;10.68;1.75;;;1.60;99.90;;;;;;5078381;28;20036;-70
2022/01/21 06:04:14;;;;;;;12.18;1.63;;;1.50;99.90;;;;;;5067378;28;20523;-70
2022/01/21 06:06:40;;;;;;;12.23;2.00;;;1.50;99.90;;;;;;5081161;28;20180;-70
2022/01/21 06:09:06;;;;;;;7.72;1.73;;;1.50;99.90;;;;;;5082633;28;20043;-70
2022/01/21 06:11:33;;;;;;;7.38;1.20;;;1.50;99.90;;;;;;5043956;28;20142;-70
2022/01/21 06:14:00;;;;;;;12.50;1.70;;;1.50;99.90;;;;;;5077940;28;20051;-70
2022/01/21 06:16:26;;;;;;;8.45;1.92;;;1.60;99.90;;;;;;5077006;28;20176;-70
2022/01/21 06:18:52;;;;;;;10.77;2.05;;;1.50;99.90;;;;;;5064058;28;20134;-70
2022/01/21 06:21:18;;;;;;;8.25;1.60;;;1.50;99.90;;;;;;5062972;28;20040;-70
2022/01/21 06:23:43;;;;;;;15.57;2.20;;;1.50;99.90;;;;;;5085815;28;20389;-70
2022/01/21 06:26:09;;;;;;;14.30;1.70;;;1.50;99.90;;;;;;5068488;28;20420;-69
2022/01/21 06:28:35;;;;;;;9.98;1.30;;;1.70;99.90;;;;;;5062925;28;20381;-70
2022/01/21 06:31:01;;;;;;;9.48;1.85;;;1.70;99.90;;;;;;5080327;28;20052;-70
2022/01/21 06:33:27;;;;;;;7.30;1.65;;;1.70;99.90;;;;;;5063566;28;20040;-70
2022/01/21 06:35:53;;;;;;;7.95;1.33;;;1.80;99.90;;;;;;5081760;28;20053;-69
2022/01/21 06:38:20;;;;;;;14.93;1.60;;;1.80;99.90;;;;;;5081992;28;20388;-70
2022/01/21 06:40:48;;;;;;;11.88;1.92;;;1.90;99.90;;;;;;5083086;28;20544;-70
2022/01/21 06:43:14;;;;;;;12.52;2.00;;;2.00;99.90;;;;;;5079861;28;20123;-69
2022/01/21 06:45:41;;;;;;;12.43;1.88;;;2.00;99.90;;;;;;5062670;28;20074;-70
2022/01/21 06:48:06;;;;;;;6.57;1.83;;;2.00;99.90;;;;;;5060899;28;20036;-70
2022/01/21 06:50:35;;;;;;;5.03;0.98;;;2.00;99.90;;;;;;5081817;28;20747;-70
2022/01/21 06:53:00;;;;;;;13.45;1.45;;;2.00;99.90;;;;;;5081521;28;20131;-70
2022/01/21 06:55:26;;;;;;;11.43;1.65;;;2.00;99.90;;;;;;5063159;28;20131;-69
2022/01/21 06:57:52;;;;;;;11.48;2.72;;;2.00;99.90;;;;;;5077469;28;20039;-69
2022/01/21 07:00:20;;;;;;;9.38;1.40;;;1.90;99.90;;;;;;5080183;28;20036;-69
2022/01/21 07:02:47;;;;;;;8.73;1.83;;;1.90;99.90;;;;;;5081324;28;20145;-69
2022/01/21 07:05:13;;;;;;;11.77;1.95;;;1.90;99.90;;;;;;5074978;28;20270;-69
2022/01/21 07:07:39;;;;;;;15.55;2.20;;;1.80;99.90;;;;;;5078249;28;20039;-70
2022/01/21 07:10:07;;;;;;;10.55;1.70;;;1.80;99.90;;;;;;5081853;28;20070;-70
2022/01/21 07:12:34;;;;;;;13.35;1.83;;;1.80;99.90;;;;;;5081779;28;20490;-69
2022/01/21 07:15:07;;;;;;;13.25;1.90;;;1.80;99.90;;;;;;5065248;28;20074;-69
2022/01/21 07:17:33;;;;;;;12.43;1.80;;;1.80;99.90;;;;;;5055998;28;20036;-70
2022/01/21 07:19:59;;;;;;;9.23;1.60;;;1.80;99.90;;;;;;5087701;28;20098;-70
2022/01/21 07:22:24;;;;;;;12.70;1.58;;;1.80;99.90;;;;;;5089339;28;20082;-70
2022/01/21 07:24:50;;;;;;;11.55;1.38;;;1.70;99.90;;;;;;5066145;28;20047;-70
2022/01/21 07:27:16;;;;;;;10.77;2.30;;;1.60;99.90;;;;;;5085614;28;20049;-70
2022/01/21 07:29:42;;;;;;;11.30;1.48;;;2.00;99.90;;;;;;5074234;28;20043;-70
2022/01/21 07:32:08;;;;;;;9.65;2.05;;;1.60;99.90;;;;;;5086202;28;20150;-70
2022/01/21 07:34:33;;;;;;;7.72;1.50;;;1.70;99.90;;;;;;5071469;28;20036;-71
2022/01/21 07:36:59;;;;;;;13.05;2.00;;;1.70;99.90;;;;;;5083674;28;20391;-71
2022/01/21 07:39:25;;;;;;;10.10;1.75;;;1.70;99.90;;;;;;5070496;28;20036;-71
2022/01/21 07:41:52;;;;;;;15.57;1.67;;;1.60;99.90;;;;;;5088797;28;20035;-71
2022/01/21 07:44:18;;;;;;;14.05;1.65;;;1.60;99.90;;;;;;5089611;28;20046;-71
2022/01/21 07:46:46;;;;;;;10.32;1.42;;;1.60;99.90;;;;;;5087313;28;20048;-71
2022/01/21 07:49:14;;;;;;;15.38;2.30;;;1.60;99.90;;;;;;5073579;28;20039;-71
2022/01/21 07:51:40;;;;;;;12.25;1.88;;;1.60;99.90;;;;;;5078698;28;20369;-71
2022/01/21 07:54:06;;;;;;;11.32;1.30;;;1.60;99.90;;;;;;5066558;28;20055;-71
2022/01/21 07:56:33;;;;;;;8.32;1.42;;;1.70;99.90;;;;;;5083131;28;20130;-70
2022/01/21 07:59:00;;;;;;;8.27;1.42;;;1.70;99.90;;;;;;5066364;28;20027;-70
2022/01/21 08:01:26;;;;;;;16.42;2.45;;;1.80;99.90;;;;;;5068006;28;20047;-71
2022/01/21 08:03:52;;;;;;;12.85;3.65;;;0.90;99.90;;;;;;5084099;28;20321;-71
2022/01/21 08:06:17;;;;;;;8.88;2.40;;;2.00;99.90;;;;;;5073315;28;20046;-71
2022/01/21 08:08:43;;;;;;;9.93;2.05;;;1.90;99.90;;;;;;5082237;28;20040;-71
2022/01/21 08:11:09;;;;;;;11.30;2.13;;;1.90;99.90;;;;;;5084293;28;20051;-71
2022/01/21 08:13:34;;;;;;;14.30;2.55;;;1.90;99.90;;;;;;5084033;28;20036;-70
2022/01/21 08:16:00;;;;;;;13.38;3.58;;;1.90;99.90;;;;;;5077507;28;20076;-70
2022/01/21 08:18:27;;;;;;;12.27;1.98;;;2.00;99.90;;;;;;5084122;28;20109;-71
2022/01/21 08:20:52;;;;;;;13.10;2.20;;;2.00;99.90;;;;;;5051720;28;20129;-72
2022/01/21 08:23:18;;;;;;;17.15;2.72;;;2.00;99.90;;;;;;5079183;28;20463;-72
2022/01/21 08:25:44;;;;;;;12.85;2.08;;;2.30;99.90;;;;;;5080742;28;20031;-72
2022/01/21 08:28:10;;;;;;;10.27;1.92;;;2.50;99.90;;;;;;5070842;28;20126;-72
2022/01/21 08:30:36;;;;;;;10.05;2.03;;;2.30;99.90;;;;;;5069447;28;20052;-72
2022/01/21 08:33:03;;;;;;;18.38;2.25;;;2.20;99.90;;;;;;5080395;28;20058;-72
2022/01/21 08:35:29;;;;;;;12.15;2.17;;;2.40;99.90;;;;;;5083407;28;20046;-72
2022/01/21 08:37:55;;;;;;;14.63;2.33;;;2.70;99.90;;;;;;5076864;28;20109;-72
2022/01/21 08:40:22;;;;;;;10.68;2.10;;;2.30;99.90;;;;;;5083644;28;20060;-72
2022/01/21 08:42:48;;;;;;;15.18;3.03;;;2.40;99.90;;;;;;5073527;28;20036;-71
2022/01/21 08:45:14;;;;;;;13.63;2.17;;;2.50;99.90;;;;;;5084830;28;20540;-71
2022/01/21 08:47:41;;;;;;;10.82;2.10;;;2.50;99.90;;;;;;5086982;28;20096;-71
2022/01/21 08:50:10;;;;;;;9.65;1.63;;;2.50;99.90;;;;;;5087466;28;20750;-72
2022/01/21 08:52:37;;;;;;;10.35;1.80;;;2.60;99.90;;;;;;5088719;28;20059;-72
2022/01/21 08:55:12;;;;;;;14.38;2.33;;;2.60;99.90;;;;;;5089420;28;20040;-72
2022/01/21 08:57:40;;;;;;;11.88;2.47;;;2.60;99.90;;;;;;5080803;28;20047;-72
2022/01/21 09:00:26;;;;;;;14.05;2.55;;;2.70;99.90;;;;;;5085441;28;20044;-72
2022/01/21 09:02:53;;;;;;;14.07;3.03;;;2.70;99.90;;;;;;5073198;28;20043;-72
2022/01/21 09:05:19;;;;;;;8.80;2.35;;;2.80;99.90;;;;;;5055172;28;20476;-72
2022/01/21 09:07:45;;;;;;;8.15;1.85;;;2.80;99.90;;;;;;5088653;28;20031;-72
2022/01/21 09:10:11;;;;;;;18.02;2.67;;;2.80;99.90;;;;;;5069887;28;20039;-72
2022/01/21 09:12:38;;;;;;;10.82;1.85;;;2.90;99.90;;;;;;5091777;28;20116;-72
2022/01/21 09:15:05;;;;;;;20.02;2.72;;;3.10;99.90;;;;;;5087848;28;20116;-72
2022/01/21 09:17:33;;;;;;;12.82;2.53;;;2.90;99.90;;;;;;5089929;28;20044;-72
2022/01/21 09:19:59;;;;;;;10.80;2.08;;;3.00;99.90;;;;;;5073389;28;20039;-71
2022/01/21 09:22:25;;;;;;;16.15;2.63;;;3.00;99.90;;;;;;5084560;28;20407;-71
2022/01/21 09:24:50;;;;;;;18.88;3.45;;;3.00;99.90;;;;;;5072115;28;20584;-71
2022/01/21 09:27:16;;;;;;;12.88;2.50;;;3.00;99.90;;;;;;5071275;28;20415;-71
2022/01/21 09:29:42;;;;;;;10.15;3.03;;;3.10;99.90;;;;;;5088506;28;20035;-71
2022/01/21 09:32:08;;;;;;;7.53;2.10;;;3.10;99.90;;;;;;5090544;28;20036;-71
2022/01/21 09:34:34;;;;;;;13.85;2.78;;;3.10;99.90;;;;;;5089630;28;20100;-71
2022/01/21 09:37:01;;;;;;;15.88;2.40;;;3.10;99.90;;;;;;5090775;28;20035;-71
2022/01/21 09:39:29;;;;;;;13.68;2.55;;;3.20;99.90;;;;;;5088944;28;20046;-71
2022/01/21 09:42:01;;;;;;;9.93;2.13;;;3.60;99.90;;;;;;5104503;28;20043;-71
2022/01/21 09:44:27;;;;;;;18.90;4.18;;;3.20;99.90;;;;;;5072718;28;20039;-72
2022/01/21 09:46:56;;;;;;;16.55;3.85;;;3.20;99.90;;;;;;5083664;28;20039;-72
2022/01/21 09:49:26;;;;;;;10.60;2.50;;;3.20;99.90;;;;;;5084840;28;20450;-72
2022/01/21 09:52:04;;;;;;;11.50;2.83;;;3.30;99.90;;;;;;5085395;28;20067;-72
2022/01/21 09:54:34;;;;;;;14.13;3.55;;;3.30;99.90;;;;;;5073985;28;20050;-72
2022/01/21 09:57:03;;;;;;;13.23;2.40;;;3.30;99.90;;;;;;5085155;28;20355;-72
2022/01/21 09:59:32;;;;;;;10.25;2.10;;;3.40;99.90;;;;;;5072876;28;20122;-71
2022/01/21 10:02:04;;;;;;;20.33;3.08;;;3.40;99.90;;;;;;5086723;28;20044;-71
2022/01/21 10:04:32;;;;;;;20.50;3.42;;;3.50;99.90;;;;;;5085737;28;20808;-72
2022/01/21 10:06:58;;;;;;;9.98;3.13;;;3.50;99.90;;;;;;5071328;28;20048;-72
2022/01/21 10:09:25;;;;;;;18.58;3.65;;;3.60;99.90;;;;;;5089408;28;20031;-72
2022/01/21 10:11:53;;;;;;;16.73;2.53;;;3.60;99.90;;;;;;5086642;28;20134;-72
2022/01/21 10:14:24;;;;;;;12.05;2.28;;;3.60;99.90;;;;;;5072993;28;20032;-72
2022/01/21 10:16:50;;;;;;;17.60;3.38;;;3.70;99.90;;;;;;5089703;28;20032;-72
2022/01/21 10:19:31;;;;;;;14.38;3.03;;;3.70;99.90;;;;;;5072335;28;20047;-72
2022/01/21 10:22:08;;;;;;;18.00;2.97;;;3.80;99.90;;;;;;5088441;28;20067;-72
2022/01/21 10:24:36;;;;;;;13.20;2.58;;;4.70;99.90;;;;;;5070450;28;20050;-72
2022/01/21 10:27:02;;;;;;;12.18;2.65;;;3.80;99.90;;;;;;5087094;28;20047;-72
2022/01/21 10:29:36;;;;;;;13.93;2.40;;;3.90;99.90;;;;;;5080444;28;20403;-72
2022/01/21 10:32:02;;;;;;;14.05;2.83;;;4.50;99.90;;;;;;5087670;28;20377;-72
2022/01/21 10:34:36;;;;;;;16.25;3.13;;;3.90;99.90;;;;;;5083862;28;20043;-72
2022/01/21 10:37:08;;;;;;;13.38;2.55;;;4.50;99.90;;;;;;5072241;28;20043;-72
2022/01/21 10:40:15;;;;;;;15.25;3.30;;;4.00;99.90;;;;;;5085756;28;20179;-72
2022/01/21 10:42:41;;;;;;;11.23;2.75;;;3.90;99.90;;;;;;5080962;28;20161;-70
2022/01/21 10:45:08;;;;;;;12.85;2.83;;;4.70;99.90;;;;;;5082439;28;20138;-71
2022/01/21 10:47:37;;;;;;;21.05;4.13;;;4.20;99.90;;;;;;5064668;28;20044;-72
2022/01/21 10:50:07;;;;;;;16.73;3.17;;;4.20;99.90;;;;;;5082615;28;20054;-72
2022/01/21 10:52:37;;;;;;;15.95;3.22;;;4.30;99.90;;;;;;5081319;28;20086;-72
2022/01/21 10:55:05;;;;;;;15.05;3.05;;;4.30;99.90;;;;;;5081597;28;20051;-72
2022/01/21 10:57:32;;;;;;;12.43;2.65;;;4.40;99.90;;;;;;5081581;28;20039;-71
2022/01/21 11:00:02;;;;;;;18.35;2.63;;;4.40;99.90;;;;;;5082553;28;20044;-72
2022/01/21 11:02:47;;;;;;;11.32;2.60;;;4.50;99.90;;;;;;5086093;28;20183;-72
2022/01/21 11:05:24;;;;;;;14.93;2.53;;;4.50;99.90;;;;;;5079579;28;20255;-71
2022/01/21 11:08:01;;;;;;;20.33;2.83;;;4.60;99.90;;;;;;5086509;28;20051;-71
2022/01/21 11:10:36;;;;;;;10.35;2.42;;;4.60;99.90;;;;;;5090080;28;20056;-72
2022/01/21 11:13:22;;;;;;;9.15;2.13;;;4.70;99.90;;;;;;5086047;28;20047;-72
2022/01/21 11:15:50;;;;;;;13.75;2.45;;;5.00;99.90;;;;;;5084358;28;20069;-72
2022/01/21 11:18:19;;;;;;;12.23;2.90;;;4.70;99.90;;;;;;5099028;28;20043;-71
2022/01/21 11:20:48;;;;;;;18.50;2.55;;;4.70;99.90;;;;;;5078202;28;20115;-71
2022/01/21 11:23:15;;;;;;;16.80;3.30;;;4.70;99.90;;;;;;5084345;28;20037;-71
2022/01/21 11:25:41;;;;;;;16.45;2.97;;;4.80;99.90;;;;;;5087891;28;20061;-71
2022/01/21 11:28:07;;;;;;;21.50;3.03;;;;;;;;;;5089930;28;20040;-71
2022/01/21 11:30:33;;;;;;;13.68;3.40;;;5.30;99.90;;;;;;5086820;28;20039;-72
2022/01/21 11:32:59;;;;;;;12.48;3.38;;;5.50;99.90;;;;;;5087623;28;20085;-71
2022/01/21 11:35:27;;;;;;;14.27;2.88;;;;;;;;;;5070018;28;20085;-72
2022/01/21 11:37:53;;;;;;;13.07;4.05;;;;;;;;;;5087220;28;20402;-72
2022/01/21 11:40:19;;;;;;;14.98;2.85;;;;;;;;;;5089790;28;20084;-72
2022/01/21 11:42:46;;;;;;;10.85;2.95;;;;;;;;;;5087186;28;20079;-72
2022/01/21 11:50:45;;;;;;;11.68;2.60;;;;;;;;;;5086872;28;20127;-73
2022/01/21 11:53:12;;;;;;;12.48;3.60;;;;;;;;;;5083577;28;20044;-72
2022/01/21 11:55:41;;;;;;;14.82;3.42;;;6.30;99.90;;;;;;5087502;28;20043;-72
2022/01/21 11:58:21;;;;;;;11.32;2.75;;;6.90;99.90;;;;;;5083817;28;20039;-72
2022/01/21 12:00:50;;;;;;;12.38;3.20;;;6.20;99.90;;;;;;5058231;28;20039;-72
2022/01/21 12:03:23;;;;;;;13.88;2.38;;;6.20;99.90;;;;;;5081939;28;20414;-72
2022/01/21 12:05:50;;;;;;;10.45;2.88;;;6.20;99.90;;;;;;5085074;28;20542;-72
2022/01/21 12:08:35;;;;;;;15.35;3.10;;;6.20;99.90;;;;;;5064652;28;20118;-72
2022/01/21 12:11:31;;;;;;;16.00;2.63;;;6.30;99.90;;;;;;5086363;28;20079;-72
2022/01/21 12:13:57;;;;;;;10.57;2.35;;;6.20;99.90;;;;;;5082170;28;20043;-72
2022/01/21 12:16:54;;;;;;;18.75;3.53;;;6.50;99.90;;;;;;5069715;28;20114;-71
2022/01/21 12:19:37;;;;;;;12.55;3.17;;;6.50;99.90;;;;;;5071826;28;20035;-72
2022/01/21 12:22:16;;;;;;;19.08;3.15;;;6.20;99.90;;;;;;5069800;28;20039;-72
2022/01/21 12:24:54;;;;;;;15.60;2.58;;;6.90;99.90;;;;;;5084994;28;20126;-72
2022/01/21 12:27:21;;;;;;;19.23;3.15;;;6.20;99.90;;;;;;5070330;28;20428;-72
2022/01/21 12:29:47;;;;;;;12.32;2.47;;;7.10;99.90;;;;;;5091600;28;20040;-72
2022/01/21 12:35:01;;;;;;;13.13;2.75;;;;;;;;;;5082796;28;20418;-72
2022/01/21 12:37:49;;;;;;;18.15;2.97;;;6.60;99.90;;;;;;5087188;28;20441;-70
2022/01/21 12:40:32;;;;;;;14.10;2.85;;;6.70;99.90;;;;;;5090143;28;20401;-71
2022/01/21 12:42:57;;;;;;;8.80;2.03;;;6.50;99.90;;;;;;5075207;28;20092;-72
2022/01/21 12:45:24;;;;;;;12.50;2.00;;;6.70;99.90;;;;;;5071698;28;20039;-71
2022/01/21 12:47:49;;;;;;;13.95;2.00;;;6.50;99.90;;;;;;5092871;28;20104;-72
2022/01/21 12:50:36;;;;;;;10.50;1.98;;;6.60;99.90;;;;;;5091171;28;20035;-72
2022/01/21 12:58:21;;;;;;;12.68;3.20;;;6.80;99.90;;;;;;5092562;28;20511;-72
2022/01/21 13:00:47;;;;;;;10.18;2.05;;;7.50;99.90;;;;;;5071273;28;20135;-70
2022/01/21 13:03:28;;;;;;;9.57;2.17;;;6.70;99.90;;;;;;5091206;28;20263;-72
2022/01/21 13:06:13;;;;;;;10.23;2.10;;;;;;;;;;5071927;28;20061;-72
2022/01/21 13:08:59;;;;;;;12.23;2.15;;;6.60;99.90;;;;;;5071405;28;20048;-72
2022/01/21 13:11:28;;;;;;;10.75;1.80;;;6.70;99.90;;;;;;5083408;28;20052;-72
2022/01/21 13:17:10;;;;;;;10.50;1.80;;;7.00;99.90;;;;;;5086261;28;20058;-72
2022/01/21 13:19:56;;;;;;;15.00;1.83;;;6.80;99.90;;;;;;5091834;28;20050;-71
2022/01/21 13:22:27;;;;;;;10.25;2.20;;;6.70;99.90;;;;;;5086674;28;20063;-71
2022/01/21 13:25:05;;;;;;;;;;;6.70;99.90;;;;;;5075136;28;20043;-71
2022/01/21 13:27:32;;;;;;;5.97;1.38;;;;;;;;;;5086884;28;19920;-71
2022/01/21 13:30:03;;;;;;;11.85;1.88;;;;;;;;;;5084973;28;20036;-72
2022/01/21 13:32:29;;;;;;;9.98;2.10;;;;;;;;;;5080017;28;20415;-72
2022/01/21 13:35:15;;;;;;;11.18;2.10;;;;;;;;;;5070294;28;20505;-72
2022/01/21 13:37:42;;;;;;;13.43;1.73;;;;;;;;;;5083021;28;20080;-72
2022/01/21 13:40:09;;;;;;;11.80;1.85;;;;;;;;;;5076138;28;20046;-72
2022/01/21 13:42:36;;;;;;;12.85;2.85;;;;;;;;;;5086958;28;20184;-72
2022/01/21 13:45:08;;;;;;;9.77;2.15;;;;;;;;;;5086850;28;20092;-72
2022/01/21 13:47:37;;;;;;;10.55;2.00;;;;;;;;;;5091892;28;20050;-72
2022/01/21 13:50:13;;;;;;;10.95;2.15;;;;;;;;;;5086984;28;20508;-72
2022/01/21 13:52:43;;;;;;;13.85;2.17;;;;;;;;;;5083593;28;20140;-73
2022/01/21 13:55:28;;;;;;;12.10;2.33;;;;;;;;;;5083181;28;20041;-72
2022/01/21 13:57:55;;;;;;;8.10;2.08;;;;;;;;;;5071832;28;20043;-72
2022/01/21 14:00:30;;;;;;;17.00;2.15;;;;;;;;;;5080529;28;20123;-71
2022/01/21 14:03:07;;;;;;;7.05;1.52;;;;;;;;;;5082835;28;20541;-72
2022/01/21 14:06:00;;;;;;;13.57;3.38;;;;;;;;;;5087436;28;20089;-72
2022/01/21 14:08:33;;;;;;;19.02;2.25;;;;;;;;;;5086940;28;20089;-72
2022/01/21 14:11:10;;;;;;;10.65;3.00;;;;;;;;;;5086354;28;20494;-72